Terminal Aerodrome Forecast
Issued by NWS

Current Version | Previous Version | Graphics & Text | Print | Product List | Glossary On
Versions: 1 2 3 4 5 6 7 8 9 10 11 12 13 14 15 16 17 18 19
000
FTUS41 KILN 261720
TAFLCK
TAF
KLCK 261720Z 2618/2718 22012G18KT P6SM BKN035
     FM262300 21010KT P6SM SCT040 SCT100 BKN250
     FM270100 17004KT P6SM SCT040 BKN250
     FM271600 19008KT P6SM BKN040=

USA.gov is the U.S. government's official web portal to all federal, state and local government web resources and services.